Time;durP1;ratioP1;P1;durP2;ratioP2;P2;SDS_P1;SDS_P2;PMS_P1;PMS_P2;Temp;Humidity;BMP_temperature;BMP_pressure;BME280_temperature;BME280_humidity;BME280_pressure;Samples;Min_cycle;Max_cycle;Signal;HPM_P1;HPM_P2
2023/07/05 00:02:18;;;;;;;8.55;2.80;;;;;;;;;;5012103;28;20037;-62
2023/07/05 00:04:45;;;;;;;6.10;2.90;;;;;;;;;;5012427;28;20026;-62
2023/07/05 00:07:10;;;;;;;8.65;3.00;;;;;;;;;;5012343;28;20088;-62
2023/07/05 00:09:36;;;;;;;7.45;3.25;;;;;;;;;;5012355;28;20034;-63
2023/07/05 00:12:01;;;;;;;6.30;2.97;;;;;;;;;;5012185;28;20022;-62
2023/07/05 00:14:27;;;;;;;7.78;2.90;;;;;;;;;;5012169;28;20036;-62
2023/07/05 00:16:53;;;;;;;5.97;2.72;;;;;;;;;;5011921;28;20029;-63
2023/07/05 00:19:18;;;;;;;8.02;2.80;;;;;;;;;;5012171;28;20030;-62
2023/07/05 00:21:44;;;;;;;5.50;2.55;;;;;;;;;;5011814;28;20433;-62
2023/07/05 00:24:09;;;;;;;7.95;2.60;;;;;;;;;;5012036;28;20030;-62
2023/07/05 00:26:34;;;;;;;10.32;2.95;;;;;;;;;;5012044;28;20026;-62
2023/07/05 00:29:00;;;;;;;7.70;2.78;;;;;;;;;;5011967;28;20018;-62
2023/07/05 00:31:25;;;;;;;10.70;2.92;;;;;;;;;;5011826;28;20052;-62
2023/07/05 00:33:51;;;;;;;5.40;3.00;;;;;;;;;;5011985;28;20117;-62
2023/07/05 00:36:16;;;;;;;7.38;3.00;;;;;;;;;;5011812;28;20135;-62
2023/07/05 00:38:42;;;;;;;7.53;2.88;;;;;;;;;;4994492;28;20029;-62
2023/07/05 00:41:07;;;;;;;7.47;3.20;;;;;;;;;;5011506;28;20022;-61
2023/07/05 00:43:33;;;;;;;6.80;2.78;;;;;;;;;;5011568;28;20038;-62
2023/07/05 00:46:21;;;;;;;7.72;2.70;;;;;;;;;;5011604;28;20022;-63
2023/07/05 00:48:54;;;;;;;7.90;2.90;;;;;;;;;;5011562;28;20112;-62
2023/07/05 00:51:25;;;;;;;8.75;2.90;;;;;;;;;;5011626;28;20383;-62
2023/07/05 00:53:54;;;;;;;5.55;2.90;;;;;;;;;;5011575;28;20026;-62
2023/07/05 00:56:48;;;;;;;5.97;2.70;;;;;;;;;;5011601;28;20390;-64
2023/07/05 00:59:15;;;;;;;8.30;3.22;;;;;;;;;;4969430;28;20424;-63
2023/07/05 01:01:41;;;;;;;7.70;2.83;;;;;;;;;;4969773;28;20042;-62
2023/07/05 01:04:07;;;;;;;8.50;2.60;;;;;;;;;;4969699;28;20031;-62
2023/07/05 01:06:33;;;;;;;11.52;2.85;;;;;;;;;;4969809;28;20106;-61
2023/07/05 01:08:59;;;;;;;7.65;2.83;;;;;;;;;;4969836;28;20449;-61
2023/07/05 01:11:47;;;;;;;6.85;2.72;;;;;;;;;;4969222;28;20039;-62
2023/07/05 01:14:15;;;;;;;6.03;2.70;;;;;;;;;;4969537;28;20053;-63
2023/07/05 01:16:40;;;;;;;7.50;2.85;;;;;;;;;;4969787;28;20084;-62
2023/07/05 01:19:32;;;;;;;5.20;2.70;;;;;;;;;;4969687;28;20054;-62
2023/07/05 01:22:33;;;;;;;5.50;3.10;;;;;;;;;;4969531;28;20027;-62
2023/07/05 01:25:23;;;;;;;8.48;3.15;;;;;;;;;;4969521;28;20033;-61
2023/07/05 01:27:57;;;;;;;7.80;3.30;;;;;;;;;;4969365;28;20170;-62
2023/07/05 01:30:23;;;;;;;3.75;2.80;;;;;;;;;;4969401;28;20117;-62
2023/07/05 01:32:56;;;;;;;8.00;3.00;;;;;;;;;;4969523;28;20484;-62
2023/07/05 01:35:31;;;;;;;5.60;2.85;;;;;;;;;;4973326;28;20048;-62
2023/07/05 01:37:57;;;;;;;5.75;3.28;;;;;;;;;;4991451;28;20076;-62
2023/07/05 01:40:25;;;;;;;4.82;2.75;;;;;;;;;;4999124;28;20514;-61
2023/07/05 01:42:55;;;;;;;6.15;2.85;;;;;;;;;;5010499;28;20431;-62
2023/07/05 01:45:34;;;;;;;7.57;3.20;;;;;;;;;;5010813;28;20493;-62
2023/07/05 01:48:12;;;;;;;5.07;2.65;;;;;;;;;;5010867;28;20383;-61
2023/07/05 01:50:49;;;;;;;8.15;3.10;;;;;;;;;;5010938;28;20026;-62
2023/07/05 01:53:26;;;;;;;5.63;3.20;;;;;;;;;;5010885;28;20021;-62
2023/07/05 01:56:01;;;;;;;7.15;3.22;;;;;;;;;;5010737;28;20059;-62
2023/07/05 01:58:30;;;;;;;8.35;3.40;;;;;;;;;;5010242;28;20026;-62
2023/07/05 02:00:58;;;;;;;8.25;3.28;;;;;;;;;;5010670;28;20471;-62
2023/07/05 02:03:25;;;;;;;7.40;3.33;;;;;;;;;;5010740;28;20033;-62
2023/07/05 02:05:51;;;;;;;6.85;3.05;;;;;;;;;;5010618;28;20029;-62
2023/07/05 02:08:18;;;;;;;7.03;2.83;;;;;;;;;;5005783;28;20037;-62
2023/07/05 02:10:43;;;;;;;4.72;2.80;;;;;;;;;;4990701;28;20382;-61
2023/07/05 02:13:10;;;;;;;6.45;3.40;;;;;;;;;;4991238;28;20145;-62
2023/07/05 02:15:38;;;;;;;7.72;3.05;;;;;;;;;;4990832;28;20034;-62
2023/07/05 02:18:04;;;;;;;4.85;3.05;;;;;;;;;;4990854;28;20468;-62
2023/07/05 02:20:30;;;;;;;6.03;3.47;;;;;;;;;;4999585;28;20188;-61
2023/07/05 02:22:56;;;;;;;7.82;3.30;;;;;;;;;;5012505;28;20033;-62
2023/07/05 02:25:22;;;;;;;8.10;3.05;;;;;;;;;;5014185;28;20422;-62
2023/07/05 02:27:47;;;;;;;9.52;3.50;;;;;;;;;;5014189;28;20383;-62
2023/07/05 02:30:13;;;;;;;6.75;3.30;;;;;;;;;;5014080;28;20378;-63
2023/07/05 02:32:39;;;;;;;4.57;2.85;;;;;;;;;;5014195;28;20032;-62
2023/07/05 02:35:05;;;;;;;5.47;3.28;;;;;;;;;;5014089;28;20029;-64
2023/07/05 02:37:32;;;;;;;7.30;3.17;;;;;;;;;;5014098;28;20026;-63
2023/07/05 02:39:58;;;;;;;5.18;3.05;;;;;;;;;;5013565;28;20040;-61
2023/07/05 02:42:24;;;;;;;5.88;3.30;;;;;;;;;;5013701;28;20042;-62
2023/07/05 02:44:51;;;;;;;8.63;2.90;;;;;;;;;;5013865;28;20108;-62
2023/07/05 02:47:18;;;;;;;5.95;3.40;;;;;;;;;;5013899;28;20426;-62
2023/07/05 02:49:44;;;;;;;9.48;3.83;;;;;;;;;;5013772;28;20161;-63
2023/07/05 02:52:10;;;;;;;6.13;3.80;;;;;;;;;;5013708;28;20021;-62
2023/07/05 02:54:35;;;;;;;7.25;4.13;;;;;;;;;;5013493;28;20022;-62
2023/07/05 02:57:01;;;;;;;11.55;6.55;;;;;;;;;;5013522;28;20029;-62
2023/07/05 02:59:26;;;;;;;12.90;6.72;;;;;;;;;;5013686;28;20529;-62
2023/07/05 03:01:52;;;;;;;8.68;4.55;;;;;;;;;;5013523;28;20040;-62
2023/07/05 03:04:17;;;;;;;10.20;5.07;;;;;;;;;;5013378;28;20037;-63
2023/07/05 03:06:43;;;;;;;7.85;4.75;;;;;;;;;;5013371;28;20041;-63
2023/07/05 03:09:08;;;;;;;10.95;5.18;;;;;;;;;;5013260;28;20152;-62
2023/07/05 03:11:34;;;;;;;10.95;5.30;;;;;;;;;;5013406;28;20075;-62
2023/07/05 03:13:59;;;;;;;7.30;5.10;;;;;;;;;;5013329;28;20026;-64
2023/07/05 03:16:24;;;;;;;7.78;4.88;;;;;;;;;;5013253;28;20026;-62
2023/07/05 03:18:50;;;;;;;8.38;5.03;;;;;;;;;;5013268;28;20165;-63
2023/07/05 03:21:15;;;;;;;18.63;4.93;;;;;;;;;;5013029;28;20045;-63
2023/07/05 03:23:41;;;;;;;8.48;4.70;;;;;;;;;;5012773;28;20418;-62
2023/07/05 03:26:10;;;;;;;9.35;4.45;;;;;;;;;;5013117;28;20037;-64
2023/07/05 03:28:37;;;;;;;8.98;4.22;;;;;;;;;;5013100;28;20032;-62
2023/07/05 03:31:08;;;;;;;9.38;4.72;;;;;;;;;;5013053;28;20030;-63
2023/07/05 03:33:34;;;;;;;8.95;4.72;;;;;;;;;;5012684;28;20058;-62
2023/07/05 03:36:03;;;;;;;9.18;5.03;;;;;;;;;;5013091;28;20360;-62
2023/07/05 03:38:30;;;;;;;9.75;4.15;;;;;;;;;;5012823;28;20092;-63
2023/07/05 03:41:00;;;;;;;14.80;7.63;;;;;;;;;;5012657;28;20061;-63
2023/07/05 03:43:27;;;;;;;10.95;5.50;;;;;;;;;;5012877;28;20044;-62
2023/07/05 03:45:53;;;;;;;11.00;5.18;;;;;;;;;;5013139;28;20112;-62
2023/07/05 03:48:21;;;;;;;9.32;4.50;;;;;;;;;;5012717;28;20084;-62
2023/07/05 03:50:47;;;;;;;10.13;4.90;;;;;;;;;;5013010;28;20025;-62
2023/07/05 03:53:13;;;;;;;8.45;3.92;;;;;;;;;;5012634;28;20037;-62
2023/07/05 03:55:38;;;;;;;7.95;3.92;;;;;;;;;;5012677;28;20494;-62
2023/07/05 03:58:04;;;;;;;7.57;4.13;;;;;;;;;;5012392;28;20030;-62
2023/07/05 04:00:29;;;;;;;9.13;4.30;;;;;;;;;;5012520;28;20103;-62
2023/07/05 04:02:55;;;;;;;9.05;3.97;;;;;;;;;;5012427;28;20034;-62
2023/07/05 04:05:20;;;;;;;6.45;4.15;;;;;;;;;;4994926;28;20085;-63
2023/07/05 04:07:46;;;;;;;8.68;3.65;;;;;;;;;;5012135;28;20025;-63
2023/07/05 04:10:11;;;;;;;6.43;3.95;;;;;;;;;;5012396;28;20475;-62
2023/07/05 04:12:37;;;;;;;11.15;4.00;;;;;;;;;;5012292;28;20542;-62
2023/07/05 04:15:03;;;;;;;7.32;3.35;;;;;;;;;;5012294;28;20379;-62
2023/07/05 04:17:31;;;;;;;9.45;3.67;;;;;;;;;;5012522;28;20025;-62
2023/07/05 04:19:57;;;;;;;7.78;3.80;;;;;;;;;;4994505;28;20128;-61
2023/07/05 04:22:23;;;;;;;6.20;3.65;;;;;;;;;;5011898;28;20465;-62
2023/07/05 04:24:48;;;;;;;6.32;3.45;;;;;;;;;;5012297;28;20258;-62
2023/07/05 04:27:15;;;;;;;6.95;3.17;;;;;;;;;;5012208;28;20022;-62
2023/07/05 04:29:41;;;;;;;7.85;3.78;;;;;;;;;;5011832;28;20494;-62
2023/07/05 04:32:07;;;;;;;7.20;3.67;;;;;;;;;;5011721;28;20021;-61
2023/07/05 04:34:33;;;;;;;12.82;3.75;;;;;;;;;;5012089;28;20022;-62
2023/07/05 04:36:58;;;;;;;7.45;3.47;;;;;;;;;;5011794;28;20445;-62
2023/07/05 04:39:24;;;;;;;8.10;3.63;;;;;;;;;;5011674;28;20021;-62
2023/07/05 04:41:49;;;;;;;8.68;3.63;;;;;;;;;;5011523;28;20533;-62
2023/07/05 04:44:15;;;;;;;8.30;3.30;;;;;;;;;;5011042;28;20133;-61
2023/07/05 04:46:40;;;;;;;8.90;3.83;;;;;;;;;;5011519;28;20112;-62
2023/07/05 04:49:06;;;;;;;7.38;3.50;;;;;;;;;;5011756;28;20057;-61
2023/07/05 04:51:32;;;;;;;6.63;2.65;;;;;;;;;;5011231;28;20013;-61
2023/07/05 04:53:58;;;;;;;10.18;3.38;;;;;;;;;;5011512;28;20026;-62
2023/07/05 04:56:23;;;;;;;11.65;3.83;;;;;;;;;;5011493;28;20421;-62
2023/07/05 04:58:49;;;;;;;10.80;3.50;;;;;;;;;;5011362;28;20030;-62
2023/07/05 05:01:14;;;;;;;12.07;3.25;;;;;;;;;;5011324;28;20030;-62
2023/07/05 05:03:40;;;;;;;9.20;3.47;;;;;;;;;;5011384;28;20030;-62
2023/07/05 05:06:06;;;;;;;10.63;3.50;;;;;;;;;;5011065;28;20037;-62
2023/07/05 05:08:32;;;;;;;10.05;3.17;;;;;;;;;;5011181;28;20049;-62
2023/07/05 05:10:59;;;;;;;8.52;3.40;;;;;;;;;;5011113;28;20041;-61
2023/07/05 05:13:26;;;;;;;14.15;3.50;;;;;;;;;;5011307;28;20096;-61
2023/07/05 05:15:51;;;;;;;13.65;4.10;;;;;;;;;;5010345;28;20037;-62
2023/07/05 05:18:17;;;;;;;11.93;3.72;;;;;;;;;;5010728;28;20022;-62
2023/07/05 05:20:43;;;;;;;7.28;3.20;;;;;;;;;;5010859;28;20072;-62
2023/07/05 05:23:09;;;;;;;7.38;3.33;;;;;;;;;;5011004;28;20053;-61
2023/07/05 05:25:35;;;;;;;14.13;3.47;;;;;;;;;;5011124;28;20032;-62
2023/07/05 05:28:01;;;;;;;7.30;3.00;;;;;;;;;;5011165;28;20487;-62
2023/07/05 05:30:27;;;;;;;7.78;2.70;;;;;;;;;;5010830;28;20037;-62
2023/07/05 05:32:52;;;;;;;7.00;2.72;;;;;;;;;;5010940;28;20021;-62
2023/07/05 05:35:17;;;;;;;8.07;2.65;;;;;;;;;;5010768;28;20474;-62
2023/07/05 05:37:43;;;;;;;9.45;2.90;;;;;;;;;;5010927;28;20125;-62
2023/07/05 05:40:10;;;;;;;8.02;2.88;;;;;;;;;;5010615;28;20391;-63
2023/07/05 05:42:36;;;;;;;10.65;2.42;;;;;;;;;;5010652;28;20141;-62
2023/07/05 05:45:01;;;;;;;5.20;2.55;;;;;;;;;;5013288;28;20065;-62
2023/07/05 05:47:26;;;;;;;5.15;2.25;;;;;;;;;;5012559;28;20493;-61
2023/07/05 05:49:52;;;;;;;4.80;2.10;;;;;;;;;;5012286;28;20164;-62
2023/07/05 05:52:17;;;;;;;5.55;2.10;;;;;;;;;;5012444;28;20022;-64
2023/07/05 05:54:43;;;;;;;5.20;2.00;;;;;;;;;;5012713;28;20367;-62
2023/07/05 05:57:08;;;;;;;6.38;2.22;;;;;;;;;;5015031;28;20068;-62
2023/07/05 05:59:34;;;;;;;5.20;2.40;;;;;;;;;;5016519;28;20026;-63
2023/07/05 06:02:00;;;;;;;4.38;1.90;;;;;;;;;;5016576;28;20037;-62
2023/07/05 06:04:26;;;;;;;6.28;2.50;;;;;;;;;;5016179;28;20034;-62
2023/07/05 06:06:51;;;;;;;5.88;2.15;;;;;;;;;;5016344;28;20348;-62
2023/07/05 06:09:16;;;;;;;6.22;2.15;;;;;;;;;;5016379;28;20018;-62
2023/07/05 06:11:42;;;;;;;6.50;2.10;;;;;;;;;;5016389;28;20022;-62
2023/07/05 06:14:09;;;;;;;9.30;2.47;;;;;;;;;;5016283;28;20038;-63
2023/07/05 06:16:34;;;;;;;10.63;2.20;;;;;;;;;;5016144;28;20522;-63
2023/07/05 06:18:59;;;;;;;4.00;2.00;;;;;;;;;;5016080;28;20034;-62
2023/07/05 06:21:25;;;;;;;6.97;2.00;;;;;;;;;;5015985;28;20034;-62
2023/07/05 06:23:51;;;;;;;5.35;1.73;;;;;;;;;;5016365;28;20030;-62
2023/07/05 06:26:18;;;;;;;5.55;2.10;;;;;;;;;;5016150;28;20033;-62
2023/07/05 06:28:44;;;;;;;6.32;2.03;;;;;;;;;;5016214;28;20121;-65
2023/07/05 06:31:10;;;;;;;4.43;1.60;;;;;;;;;;5015831;28;20478;-62
2023/07/05 06:33:36;;;;;;;4.47;1.70;;;;;;;;;;5015870;28;20166;-64
2023/07/05 06:36:02;;;;;;;5.07;1.80;;;;;;;;;;5016058;28;20371;-63
2023/07/05 06:38:29;;;;;;;6.57;1.88;;;;;;;;;;5015837;28;20060;-62
2023/07/05 06:40:55;;;;;;;4.20;1.48;;;;;;;;;;5015606;28;20428;-63
2023/07/05 06:43:21;;;;;;;3.17;1.60;;;;;;;;;;5015625;28;20181;-62
2023/07/05 06:45:54;;;;;;;4.72;1.60;;;;;;;;;;5015805;28;20037;-63
2023/07/05 06:48:21;;;;;;;6.32;1.95;;;;;;;;;;5015167;28;20040;-63
2023/07/05 06:50:54;;;;;;;4.55;1.77;;;;;;;;;;5015722;28;20033;-62
2023/07/05 06:53:21;;;;;;;5.90;1.98;;;;;;;;;;5015764;28;20026;-62
2023/07/05 06:55:48;;;;;;;3.15;1.55;;;;;;;;;;5015659;28;20478;-62
2023/07/05 06:58:14;;;;;;;4.35;2.00;;;;;;;;;;5015512;28;20026;-62
2023/07/05 07:00:39;;;;;;;4.55;2.17;;;;;;;;;;5015701;28;20417;-62
2023/07/05 07:03:05;;;;;;;6.78;2.15;;;;;;;;;;5015370;28;20040;-62
2023/07/05 07:05:31;;;;;;;6.75;2.20;;;;;;;;;;5015530;28;20034;-62
2023/07/05 07:07:56;;;;;;;4.18;1.60;;;;;;;;;;5014586;28;20034;-63
2023/07/05 07:10:22;;;;;;;11.75;2.58;;;;;;;;;;5015390;28;20425;-63
2023/07/05 07:12:47;;;;;;;7.95;2.40;;;;;;;;;;5015469;28;20029;-62
2023/07/05 07:15:13;;;;;;;9.30;2.10;;;;;;;;;;5015175;28;20526;-62
2023/07/05 07:17:38;;;;;;;20.15;2.22;;;;;;;;;;5015167;28;20112;-62
2023/07/05 07:20:04;;;;;;;4.63;1.80;;;;;;;;;;5014898;28;20048;-63
2023/07/05 07:22:30;;;;;;;4.07;2.20;;;;;;;;;;5015049;28;20041;-62
2023/07/05 07:24:56;;;;;;;5.45;2.20;;;;;;;;;;5015156;28;20033;-62
2023/07/05 07:27:21;;;;;;;4.55;2.35;;;;;;;;;;5014982;28;20017;-62
2023/07/05 07:29:47;;;;;;;2.78;1.60;;;;;;;;;;5014560;28;20459;-62
2023/07/05 07:32:12;;;;;;;4.85;2.45;;;;;;;;;;5015012;28;20467;-63
2023/07/05 07:34:37;;;;;;;7.47;2.50;;;;;;;;;;5015024;28;20030;-63
2023/07/05 07:37:03;;;;;;;8.50;2.50;;;;;;;;;;5014903;28;20034;-62
2023/07/05 07:39:29;;;;;;;8.27;2.15;;;;;;;;;;5014589;28;20483;-62
2023/07/05 07:41:55;;;;;;;9.20;2.80;;;;;;;;;;5014617;28;20034;-63
2023/07/05 07:44:20;;;;;;;6.25;2.70;;;;;;;;;;5014151;28;20128;-63
2023/07/05 07:46:46;;;;;;;4.10;1.88;;;;;;;;;;5014453;28;20034;-62
2023/07/05 07:49:12;;;;;;;5.35;3.00;;;;;;;;;;5014464;28;20088;-62
2023/07/05 07:51:39;;;;;;;6.50;2.55;;;;;;;;;;5014522;28;20026;-62
2023/07/05 07:54:13;;;;;;;5.65;2.53;;;;;;;;;;5014592;28;20120;-63
2023/07/05 07:56:41;;;;;;;7.00;2.60;;;;;;;;;;5014462;28;20101;-62
2023/07/05 07:59:07;;;;;;;8.07;2.60;;;;;;;;;;5014187;28;20026;-63
2023/07/05 08:01:34;;;;;;;5.13;2.47;;;;;;;;;;5014188;28;20037;-63
2023/07/05 08:04:03;;;;;;;6.70;2.90;;;;;;;;;;5014453;28;20101;-62
2023/07/05 08:06:46;;;;;;;8.65;2.70;;;;;;;;;;5014160;28;20149;-62
2023/07/05 08:09:15;;;;;;;7.25;3.58;;;;;;;;;;5014145;28;20025;-63
2023/07/05 08:11:42;;;;;;;10.70;2.88;;;;;;;;;;5013938;28;20045;-62
2023/07/05 08:14:09;;;;;;;6.28;2.55;;;;;;;;;;5014030;28;20045;-62
2023/07/05 08:16:35;;;;;;;7.25;3.05;;;;;;;;;;5014040;28;20356;-62
2023/07/05 08:19:00;;;;;;;8.65;3.10;;;;;;;;;;5014054;28;20058;-62
2023/07/05 08:21:26;;;;;;;4.75;2.75;;;;;;;;;;5013941;28;20140;-62
2023/07/05 08:23:51;;;;;;;9.75;3.50;;;;;;;;;;5014071;28;20022;-62
2023/07/05 08:26:17;;;;;;;7.55;3.72;;;;;;;;;;5013970;28;20065;-63
2023/07/05 08:28:43;;;;;;;7.45;3.60;;;;;;;;;;5013495;28;20025;-63
2023/07/05 08:31:09;;;;;;;8.23;3.40;;;;;;;;;;5013914;28;20026;-62
2023/07/05 08:33:36;;;;;;;8.80;3.88;;;;;;;;;;5013867;28;20030;-64
2023/07/05 08:36:13;;;;;;;8.73;4.43;;;;;;;;;;5013956;28;20026;-62
2023/07/05 08:38:46;;;;;;;8.25;3.78;;;;;;;;;;5013544;28;20018;-65
2023/07/05 08:41:25;;;;;;;12.32;3.90;;;;;;;;;;5013428;28;20078;-62
2023/07/05 08:44:30;;;;;;;6.95;3.90;;;;;;;;;;5013275;28;20045;-62
2023/07/05 08:47:00;;;;;;;7.80;4.03;;;;;;;;;;5013486;28;20089;-64
2023/07/05 08:49:36;;;;;;;;;;;;;;;;;;5013911;28;20383;-64
2023/07/05 08:52:02;;;;;;;9.27;4.57;;;;;;;;;;5013684;28;20433;-64
2023/07/05 08:54:32;;;;;;;9.18;4.95;;;;;;;;;;5013373;28;20033;-64
2023/07/05 08:57:08;;;;;;;10.75;4.43;;;;;;;;;;5013232;28;20018;-72
2023/07/05 08:59:49;;;;;;;10.13;4.20;;;;;;;;;;5013257;28;20475;-66
2023/07/05 09:02:19;;;;;;;8.18;4.60;;;;;;;;;;5013129;28;20034;-65
2023/07/05 09:04:47;;;;;;;8.32;4.75;;;;;;;;;;5013590;28;20132;-64
2023/07/05 09:07:20;;;;;;;12.05;5.15;;;;;;;;;;5013141;28;20108;-65
2023/07/05 09:10:13;;;;;;;9.52;5.55;;;;;;;;;;5013261;28;20095;-66
2023/07/05 09:13:04;;;;;;;9.70;5.43;;;;;;;;;;5013075;28;20021;-64
2023/07/05 09:15:41;;;;;;;8.15;4.82;;;;;;;;;;5013104;28;20022;-63
2023/07/05 09:18:32;;;;;;;11.35;5.03;;;;;;;;;;5013169;28;20021;-66
2023/07/05 09:21:30;;;;;;;14.23;5.47;;;;;;;;;;5012460;28;20487;-65
2023/07/05 09:24:08;;;;;;;11.73;5.43;;;;;;;;;;5001047;28;20104;-64
2023/07/05 09:26:40;;;;;;;9.40;4.40;;;;;;;;;;5012908;28;20113;-64
2023/07/05 09:29:36;;;;;;;13.52;5.25;;;;;;;;;;5012848;28;20034;-63
2023/07/05 09:32:14;;;;;;;12.38;5.45;;;;;;;;;;5012583;28;20022;-63
2023/07/05 09:34:45;;;;;;;11.45;5.30;;;;;;;;;;5012966;28;20038;-63
2023/07/05 09:37:15;;;;;;;9.38;5.25;;;;;;;;;;5012782;28;20045;-63
2023/07/05 09:40:06;;;;;;;12.52;5.65;;;;;;;;;;5012429;28;20030;-63
2023/07/05 09:42:41;;;;;;;15.85;6.43;;;;;;;;;;4994924;28;20037;-63
2023/07/05 09:45:14;;;;;;;11.32;6.00;;;;;;;;;;5012690;28;20044;-63
2023/07/05 09:47:41;;;;;;;10.98;5.65;;;;;;;;;;5012307;28;20356;-63
2023/07/05 09:50:13;;;;;;;10.25;6.20;;;;;;;;;;5012643;28;20037;-62
2023/07/05 09:52:39;;;;;;;14.45;5.60;;;;;;;;;;5012676;28;20030;-62
2023/07/05 09:55:12;;;;;;;14.43;6.03;;;;;;;;;;5012505;28;20028;-63
2023/07/05 09:57:38;;;;;;;11.95;6.30;;;;;;;;;;5012431;28;20116;-62
2023/07/05 10:00:19;;;;;;;12.63;6.50;;;;;;;;;;5012551;28;20033;-63
2023/07/05 10:02:48;;;;;;;10.02;6.07;;;;;;;;;;5012628;28;20034;-63
2023/07/05 10:05:16;;;;;;;14.25;6.97;;;;;;;;;;5012598;28;20432;-63
2023/07/05 10:07:55;;;;;;;15.27;6.70;;;;;;;;;;5012572;28;20479;-63
2023/07/05 10:10:26;;;;;;;15.43;6.43;;;;;;;;;;5012304;28;20030;-63
2023/07/05 10:13:01;;;;;;;12.20;7.00;;;;;;;;;;5012925;28;20034;-64
2023/07/05 10:15:26;;;;;;;15.05;6.60;;;;;;;;;;5012469;28;20030;-63
2023/07/05 10:17:53;;;;;;;14.77;7.72;;;;;;;;;;5012537;28;20030;-63
2023/07/05 10:20:23;;;;;;;21.58;8.73;;;;;;;;;;5012264;28;20025;-64
2023/07/05 10:23:16;;;;;;;11.95;7.40;;;;;;;;;;5012410;28;20466;-63
2023/07/05 10:25:42;;;;;;;11.35;7.18;;;;;;;;;;5011930;28;20049;-64
2023/07/05 10:28:14;;;;;;;12.02;7.90;;;;;;;;;;5012087;28;20382;-63
2023/07/05 10:30:59;;;;;;;17.90;7.13;;;;;;;;;;5012300;28;20383;-62
2023/07/05 10:33:32;;;;;;;20.60;9.07;;;;;;;;;;5012186;28;20034;-64
2023/07/05 10:36:09;;;;;;;18.67;9.75;;;;;;;;;;5012280;28;20121;-62
2023/07/05 10:38:46;;;;;;;24.90;10.52;;;;;;;;;;5011950;28;20541;-63
2023/07/05 10:41:19;;;;;;;17.48;10.18;;;;;;;;;;5011798;28;20026;-63
2023/07/05 10:43:52;;;;;;;16.17;8.63;;;;;;;;;;5029067;28;20531;-63
2023/07/05 10:46:21;;;;;;;15.48;9.50;;;;;;;;;;5015940;28;20076;-63
2023/07/05 10:48:48;;;;;;;14.63;9.55;;;;;;;;;;4996405;28;20571;-62
2023/07/05 10:51:24;;;;;;;22.05;10.50;;;;;;;;;;4996022;28;20125;-63
2023/07/05 10:54:28;;;;;;;15.23;8.77;;;;;;;;;;4996112;28;20027;-63
2023/07/05 10:56:54;;;;;;;14.02;9.40;;;;;;;;;;4996095;28;20436;-63
2023/07/05 10:59:58;;;;;;;17.75;9.43;;;;;;;;;;4996045;28;20494;-63
2023/07/05 11:02:33;;;;;;;18.85;10.23;;;;;;;;;;4993483;28;20446;-63
2023/07/05 11:04:58;;;;;;;17.88;9.65;;;;;;;;;;5015488;28;20108;-63
2023/07/05 11:07:25;;;;;;;16.65;10.13;;;;;;;;;;5015165;28;20045;-63
2023/07/05 11:09:51;;;;;;;17.20;9.90;;;;;;;;;;5015327;28;20076;-63
2023/07/05 11:12:16;;;;;;;15.80;10.55;;;;;;;;;;4997646;28;20467;-62
2023/07/05 11:14:42;;;;;;;17.00;7.97;;;;;;;;;;5015497;28;20025;-63
2023/07/05 11:17:23;;;;;;;15.60;9.63;;;;;;;;;;5015308;28;20032;-63
2023/07/05 11:19:48;;;;;;;13.25;8.35;;;;;;;;;;5015317;28;20088;-62
2023/07/05 11:22:38;;;;;;;16.98;9.80;;;;;;;;;;5014851;28;20475;-63
2023/07/05 11:25:04;;;;;;;16.35;9.43;;;;;;;;;;5006348;28;20034;-62
2023/07/05 11:27:29;;;;;;;15.13;9.93;;;;;;;;;;5015044;28;20030;-63
2023/07/05 11:29:55;;;;;;;17.27;10.02;;;;;;;;;;5008337;28;20111;-63
2023/07/05 11:32:47;;;;;;;15.45;9.60;;;;;;;;;;4995516;28;20173;-63
2023/07/05 11:35:45;;;;;;;16.83;10.25;;;;;;;;;;4995533;28;20030;-63
2023/07/05 11:38:36;;;;;;;15.27;8.63;;;;;;;;;;4996650;28;20080;-62
2023/07/05 11:41:25;;;;;;;16.15;9.35;;;;;;;;;;5014568;28;20030;-62
2023/07/05 11:44:02;;;;;;;16.67;10.55;;;;;;;;;;5008187;28;20499;-63
2023/07/05 11:46:43;;;;;;;14.48;8.32;;;;;;;;;;5014452;28;20467;-62
2023/07/05 11:49:18;;;;;;;;;;;;;;;;;;5015030;28;20030;-62
2023/07/05 11:51:44;;;;;;;18.75;10.38;;;;;;;;;;5014466;28;19913;-62
2023/07/05 11:54:11;;;;;;;16.30;10.30;;;;;;;;;;5014123;28;20068;-63
2023/07/05 11:56:39;;;;;;;14.63;9.85;;;;;;;;;;5014633;28;20104;-62
2023/07/05 11:59:07;;;;;;;17.27;10.05;;;;;;;;;;5014535;28;20022;-62
2023/07/05 12:01:37;;;;;;;12.68;7.40;;;;;;;;;;5014453;28;20470;-63
2023/07/05 12:04:06;;;;;;;17.40;10.15;;;;;;;;;;5014358;28;20041;-65
2023/07/05 12:06:40;;;;;;;15.23;10.02;;;;;;;;;;5014182;28;20363;-62
2023/07/05 12:09:36;;;;;;;18.50;10.25;;;;;;;;;;5014281;28;20029;-63
2023/07/05 12:12:03;;;;;;;13.18;8.90;;;;;;;;;;5013103;28;20159;-63
2023/07/05 12:14:29;;;;;;;13.80;8.63;;;;;;;;;;5014366;28;20026;-63
2023/07/05 12:16:55;;;;;;;16.35;9.02;;;;;;;;;;5014314;28;20036;-65
2023/07/05 12:19:30;;;;;;;14.90;8.15;;;;;;;;;;5014129;28;20509;-63
2023/07/05 12:22:06;;;;;;;12.13;7.82;;;;;;;;;;4994183;28;20140;-65
2023/07/05 12:24:40;;;;;;;13.77;9.18;;;;;;;;;;4994539;28;20022;-63
2023/07/05 12:27:16;;;;;;;13.65;8.50;;;;;;;;;;4994635;28;20034;-64
2023/07/05 12:29:41;;;;;;;15.60;8.98;;;;;;;;;;4994304;28;20093;-66
2023/07/05 12:32:16;;;;;;;17.20;9.20;;;;;;;;;;4994094;28;20471;-63
2023/07/05 12:34:41;;;;;;;12.35;7.47;;;;;;;;;;4994104;28;20022;-65
2023/07/05 12:37:10;;;;;;;12.27;8.10;;;;;;;;;;4994283;28;20089;-65
2023/07/05 12:39:38;;;;;;;10.75;6.75;;;;;;;;;;5006935;28;20030;-65
2023/07/05 12:42:08;;;;;;;12.52;6.68;;;;;;;;;;5013898;28;20386;-63
2023/07/05 12:44:35;;;;;;;10.35;5.47;;;;;;;;;;5013744;28;20573;-63
2023/07/05 12:47:17;;;;;;;7.40;4.93;;;;;;;;;;5013342;28;20034;-64
2023/07/05 12:49:43;;;;;;;7.60;5.45;;;;;;;;;;5013306;28;20224;-64
2023/07/05 12:52:18;;;;;;;9.60;6.95;;;;;;;;;;5013549;28;20062;-63
2023/07/05 12:54:43;;;;;;;8.18;5.30;;;;;;;;;;5013549;28;20029;-63
2023/07/05 12:57:25;;;;;;;9.70;5.68;;;;;;;;;;5013362;28;20397;-62
2023/07/05 12:59:51;;;;;;;13.20;5.68;;;;;;;;;;5013332;28;20022;-63
2023/07/05 13:02:28;;;;;;;10.32;4.45;;;;;;;;;;5012925;28;20113;-63
2023/07/05 13:04:54;;;;;;;7.55;5.15;;;;;;;;;;5013226;28;20079;-66
2023/07/05 13:07:22;;;;;;;7.25;4.72;;;;;;;;;;5012593;28;20116;-64
2023/07/05 13:09:50;;;;;;;7.50;4.15;;;;;;;;;;5013219;28;20029;-64
2023/07/05 13:12:16;;;;;;;8.00;4.50;;;;;;;;;;5013081;28;20546;-64
2023/07/05 13:15:07;;;;;;;8.23;4.30;;;;;;;;;;5013064;28;20157;-63
2023/07/05 13:17:33;;;;;;;5.50;3.90;;;;;;;;;;5013160;28;20026;-63
2023/07/05 13:20:12;;;;;;;6.32;3.80;;;;;;;;;;5012766;28;20097;-63
2023/07/05 13:22:41;;;;;;;6.23;3.20;;;;;;;;;;5013022;28;20026;-63
2023/07/05 13:25:29;;;;;;;10.57;3.78;;;;;;;;;;5013039;28;20178;-63
2023/07/05 13:27:56;;;;;;;7.15;3.30;;;;;;;;;;5012915;28;20021;-63
2023/07/05 13:30:22;;;;;;;5.78;2.47;;;;;;;;;;5012808;28;20030;-63
2023/07/05 13:32:53;;;;;;;4.03;2.13;;;;;;;;;;5012690;28;20534;-63
2023/07/05 13:35:19;;;;;;;4.18;2.10;;;;;;;;;;5012796;28;20029;-63
2023/07/05 13:37:45;;;;;;;7.40;2.65;;;;;;;;;;5012878;28;20022;-63
2023/07/05 13:40:20;;;;;;;8.23;3.38;;;;;;;;;;5012424;28;20386;-63
2023/07/05 13:42:47;;;;;;;7.07;2.90;;;;;;;;;;5012547;28;20050;-62
2023/07/05 13:45:22;;;;;;;9.90;2.65;;;;;;;;;;5012581;28;20033;-63
2023/07/05 13:47:48;;;;;;;5.85;2.72;;;;;;;;;;5012189;28;20030;-63
2023/07/05 13:50:14;;;;;;;7.82;2.53;;;;;;;;;;5012632;28;20025;-62
2023/07/05 13:52:41;;;;;;;5.30;2.90;;;;;;;;;;5012731;28;20080;-62
2023/07/05 13:55:18;;;;;;;9.05;2.55;;;;;;;;;;5012550;28;20030;-62
2023/07/05 13:57:57;;;;;;;4.82;2.50;;;;;;;;;;5012537;28;20391;-63
2023/07/05 14:00:26;;;;;;;4.22;2.38;;;;;;;;;;5012474;28;20499;-63
2023/07/05 14:02:53;;;;;;;7.43;2.60;;;;;;;;;;5012082;28;20107;-62
2023/07/05 14:05:18;;;;;;;6.20;2.40;;;;;;;;;;5012642;28;20025;-62
2023/07/05 14:07:44;;;;;;;4.70;2.25;;;;;;;;;;5012591;28;20518;-62
2023/07/05 14:10:14;;;;;;;7.93;2.80;;;;;;;;;;5012385;28;20478;-62
2023/07/05 14:12:39;;;;;;;4.72;1.83;;;;;;;;;;4994930;28;20026;-62
2023/07/05 14:15:34;;;;;;;7.65;2.35;;;;;;;;;;5012406;28;20501;-62
2023/07/05 14:17:59;;;;;;;4.53;1.75;;;;;;;;;;5014723;28;20026;-62
2023/07/05 14:20:30;;;;;;;5.03;2.20;;;;;;;;;;5016223;28;20479;-63
2023/07/05 14:22:55;;;;;;;3.92;1.88;;;;;;;;;;5016537;28;20033;-62
2023/07/05 14:25:21;;;;;;;5.97;2.17;;;;;;;;;;5016261;28;20034;-63
2023/07/05 14:27:47;;;;;;;5.72;2.03;;;;;;;;;;5016185;28;20152;-62
2023/07/05 14:30:14;;;;;;;7.18;2.70;;;;;;;;;;5015901;28;20490;-62
2023/07/05 14:32:40;;;;;;;8.98;2.00;;;;;;;;;;5015993;28;20034;-62
2023/07/05 14:35:23;;;;;;;6.18;2.08;;;;;;;;;;5016007;28;20075;-63
2023/07/05 14:37:51;;;;;;;12.48;2.33;;;;;;;;;;5016141;28;20600;-62
2023/07/05 14:40:18;;;;;;;6.68;2.20;;;;;;;;;;5015739;28;20394;-63
2023/07/05 14:42:44;;;;;;;6.03;2.30;;;;;;;;;;5015884;28;20053;-63
2023/07/05 14:45:27;;;;;;;6.25;2.53;;;;;;;;;;5015493;28;20033;-63
2023/07/05 14:47:55;;;;;;;2.92;1.48;;;;;;;;;;5015563;28;20033;-63
2023/07/05 14:50:21;;;;;;;4.88;2.15;;;;;;;;;;5015994;28;20033;-63
2023/07/05 14:52:48;;;;;;;4.43;1.80;;;;;;;;;;5015592;28;20443;-63
2023/07/05 14:55:21;;;;;;;2.97;1.70;;;;;;;;;;5015753;28;20101;-63